Saorsa II — CFA2983 — position and weather

sailwx.info

Track history (hours):
 
Tides and Currents Weather Stations Pressure Air Temp Water Temp Dewpoint Dewpoint Depression Visibility Wind Speed Wind Dir Waves Ship Positions

Saorsa II

Last reported at 2014-Jun-17 14:33 UTC. Time now 2014-Nov-01 11:17 UTC.
Position N 40°41' W 074°03'.
Warning: this ship's position is months out of date.

Length 12 m.

Type: Sailing vessel. MMSI: 316005655.

Date/timePositionNaut miles runAvg speedWind from/ knotsBaromVisibWave heightAir tempDewpointWater temp
2014-Jun-17 14:33N 40°41' W 074°03'29 4.6
2014-Jun-17 08:16N 40°13' W 073°54'3 3.6
2014-Jun-17 07:33N 40°10' W 073°55'4 3.8
2014-Jun-17 06:33N 40°06' W 073°56'5 4.2
2014-Jun-17 05:22N 40°02' W 073°58'4 3.9
2014-Jun-17 04:19N 39°58' W 073°60'3 3.8
2014-Jun-17 03:31N 39°55' W 074°01'8 3.6
2014-Jun-17 01:23N 39°47' W 074°03'3 3.9
2014-Jun-17 00:30N 39°44' W 074°04'3 3.7
2014-Jun-16 23:33N 39°41' W 074°06'  
Track history (hours):
 
Tides and Currents Weather Stations Pressure Air Temp Water Temp Dewpoint Dewpoint Depression Visibility Wind Speed Wind Dir Waves Ship Positions

Saorsa II

Last reported at 2014-Jun-17 14:33 UTC. Time now 2014-Nov-01 11:17 UTC.
Position N 40°41' W 074°03'.
Warning: this ship's position is months out of date.

Length 12 m.

Type: Sailing vessel. MMSI: 316005655.

Date/timePositionNaut miles runAvg speedWind from/ knotsBaromVisibWave heightAir tempDewpointWater temp
2014-Jun-17 14:33N 40°41' W 074°03'29 4.6
2014-Jun-17 08:16N 40°13' W 073°54'3 3.6
2014-Jun-17 07:33N 40°10' W 073°55'4 3.8
2014-Jun-17 06:33N 40°06' W 073°56'5 4.2
2014-Jun-17 05:22N 40°02' W 073°58'4 3.9
2014-Jun-17 04:19N 39°58' W 073°60'3 3.8
2014-Jun-17 03:31N 39°55' W 074°01'8 3.6
2014-Jun-17 01:23N 39°47' W 074°03'3 3.9
2014-Jun-17 00:30N 39°44' W 074°04'3 3.7
2014-Jun-16 23:33N 39°41' W 074°06'  

Dump ship's entire track history